Time;durP1;ratioP1;P1;durP2;ratioP2;P2;SDS_P1;SDS_P2;PMS_P1;PMS_P2;Temp;Humidity;BMP_temperature;BMP_pressure;BME280_temperature;BME280_humidity;BME280_pressure;Samples;Min_cycle;Max_cycle;Signal;HPM_P1;HPM_P2
2023/09/03 00:01:36;;;;;;;6.40;2.03;;;18.60;99.90;;;;;;5074056;28;20401;-62
2023/09/03 00:04:04;;;;;;;3.75;1.65;;;18.60;99.90;;;;;;5076026;28;20204;-62
2023/09/03 00:06:33;;;;;;;8.80;2.30;;;18.60;99.90;;;;;;5071250;28;20209;-62
2023/09/03 00:09:01;;;;;;;4.10;1.90;;;18.50;99.90;;;;;;5074968;28;20248;-60
2023/09/03 00:11:29;;;;;;;8.00;1.77;;;18.50;99.90;;;;;;5074829;28;20197;-62
2023/09/03 00:13:57;;;;;;;7.07;2.28;;;18.50;99.90;;;;;;5071336;28;20240;-62
2023/09/03 00:16:25;;;;;;;3.25;1.65;;;18.50;99.90;;;;;;5075979;28;20668;-62
2023/09/03 00:18:54;;;;;;;5.00;2.08;;;18.40;99.90;;;;;;5074337;28;20225;-62
2023/09/03 00:21:22;;;;;;;5.13;1.90;;;18.50;99.90;;;;;;5067648;28;20232;-61
2023/09/03 00:23:51;;;;;;;4.35;1.88;;;18.40;99.90;;;;;;5071403;28;20239;-62
2023/09/03 00:26:21;;;;;;;4.88;2.00;;;18.40;99.90;;;;;;5070631;28;20255;-62
2023/09/03 00:28:49;;;;;;;4.80;1.88;;;18.40;99.90;;;;;;5070980;28;20255;-62
2023/09/03 00:31:17;;;;;;;7.68;1.80;;;18.40;99.90;;;;;;5071123;28;20240;-62
2023/09/03 00:33:45;;;;;;;4.03;1.80;;;18.40;99.90;;;;;;5076392;28;20693;-62
2023/09/03 00:36:14;;;;;;;2.30;1.90;;;18.40;99.90;;;;;;5069288;28;20212;-62
2023/09/03 00:38:42;;;;;;;1.83;1.73;;;18.40;99.90;;;;;;5076960;28;20236;-62
2023/09/03 00:41:11;;;;;;;5.80;2.10;;;18.40;99.90;;;;;;5069050;28;20201;-62
2023/09/03 00:43:39;;;;;;;6.75;1.67;;;18.40;99.90;;;;;;5075824;28;20274;-62
2023/09/03 00:46:08;;;;;;;6.47;2.00;;;18.40;99.90;;;;;;5077147;28;20240;-62
2023/09/03 00:48:36;;;;;;;6.07;1.75;;;18.40;99.90;;;;;;5055552;28;20595;-62
2023/09/03 00:51:06;;;;;;;7.63;2.40;;;18.40;99.90;;;;;;5070413;28;20896;-62
2023/09/03 00:53:34;;;;;;;7.88;2.03;;;18.30;99.90;;;;;;5077440;28;20200;-62
2023/09/03 00:56:02;;;;;;;7.70;1.83;;;18.30;99.90;;;;;;5069746;28;20254;-62
2023/09/03 00:58:31;;;;;;;7.72;2.10;;;18.30;99.90;;;;;;5070473;28;20278;-62
2023/09/03 01:00:59;;;;;;;5.07;2.08;;;18.30;99.90;;;;;;5077494;28;20221;-62
2023/09/03 01:03:27;;;;;;;4.68;2.05;;;18.20;99.90;;;;;;5077546;28;20217;-62
2023/09/03 01:05:55;;;;;;;3.55;1.70;;;18.20;99.90;;;;;;5069522;28;20690;-61
2023/09/03 01:08:23;;;;;;;4.90;2.05;;;18.20;99.90;;;;;;5077612;28;20269;-62
2023/09/03 01:10:56;;;;;;;2.10;1.98;;;18.20;99.90;;;;;;5076367;28;20205;-61
2023/09/03 01:13:26;;;;;;;4.90;1.90;;;18.10;99.90;;;;;;5077360;28;20205;-62
2023/09/03 01:15:56;;;;;;;5.05;2.28;;;18.10;99.90;;;;;;5075053;28;20250;-63
2023/09/03 01:18:24;;;;;;;7.03;2.15;;;18.10;99.90;;;;;;5079785;28;20313;-62
2023/09/03 01:21:04;;;;;;;2.95;1.92;;;18.10;99.90;;;;;;5077604;28;20265;-62
2023/09/03 01:23:38;;;;;;;4.80;1.83;;;18.10;99.90;;;;;;5070725;28;20213;-62
2023/09/03 01:26:11;;;;;;;4.78;2.20;;;18.00;99.90;;;;;;5074794;28;20208;-62
2023/09/03 01:28:41;;;;;;;3.45;2.05;;;18.00;99.90;;;;;;5077158;28;20224;-62
2023/09/03 01:31:11;;;;;;;7.63;2.08;;;18.00;99.90;;;;;;5078665;28;20236;-62
2023/09/03 01:33:40;;;;;;;3.97;1.70;;;17.90;99.90;;;;;;5078291;28;20211;-62
2023/09/03 01:36:09;;;;;;;3.42;2.10;;;17.90;99.90;;;;;;5075164;28;20300;-62
2023/09/03 01:38:37;;;;;;;3.20;2.15;;;17.90;99.90;;;;;;5069501;28;20317;-62
2023/09/03 01:41:05;;;;;;;6.05;1.88;;;17.80;99.90;;;;;;5068863;28;20786;-62
2023/09/03 01:43:33;;;;;;;4.20;1.80;;;17.80;99.90;;;;;;5072647;28;20232;-60
2023/09/03 01:46:05;;;;;;;2.28;2.13;;;17.80;99.90;;;;;;5075080;28;20663;-62
2023/09/03 01:48:43;;;;;;;3.22;1.75;;;17.80;99.90;;;;;;5074656;28;20222;-62
2023/09/03 01:51:14;;;;;;;4.93;2.50;;;17.70;99.90;;;;;;5074964;28;20235;-62
2023/09/03 01:53:46;;;;;;;7.78;2.22;;;17.70;99.90;;;;;;5073685;28;20637;-62
2023/09/03 01:56:15;;;;;;;5.28;1.90;;;17.70;99.90;;;;;;5075756;28;20205;-62
2023/09/03 01:58:43;;;;;;;3.30;1.88;;;17.70;99.90;;;;;;5073425;28;20316;-61
2023/09/03 02:01:13;;;;;;;3.58;2.08;;;17.60;99.90;;;;;;5073927;28;20340;-62
2023/09/03 02:03:41;;;;;;;2.10;1.77;;;17.60;99.90;;;;;;5076462;28;20205;-62
2023/09/03 02:06:09;;;;;;;2.65;2.00;;;17.60;99.90;;;;;;5074886;28;20284;-61
2023/09/03 02:08:37;;;;;;;2.53;2.13;;;17.60;99.90;;;;;;5073776;28;20692;-62
2023/09/03 02:11:04;;;;;;;6.75;2.53;;;17.50;99.90;;;;;;5075608;28;20251;-63
2023/09/03 02:13:32;;;;;;;4.35;1.70;;;17.60;99.90;;;;;;5073808;28;20251;-62
2023/09/03 02:16:00;;;;;;;3.78;1.83;;;17.50;99.90;;;;;;5076157;28;20205;-61
2023/09/03 02:18:29;;;;;;;4.05;1.90;;;17.50;99.90;;;;;;5076247;28;20271;-61
2023/09/03 02:20:57;;;;;;;2.72;1.80;;;17.50;99.90;;;;;;5076178;28;20221;-61
2023/09/03 02:23:25;;;;;;;7.50;2.00;;;17.40;99.90;;;;;;5074364;28;20296;-61
2023/09/03 02:26:00;;;;;;;3.88;1.83;;;17.40;99.90;;;;;;5074593;28;20207;-61
2023/09/03 02:28:28;;;;;;;5.05;1.85;;;17.40;99.90;;;;;;5073995;28;20216;-61
2023/09/03 02:30:57;;;;;;;3.53;2.15;;;17.40;99.90;;;;;;5076900;28;20254;-61
2023/09/03 02:33:25;;;;;;;5.40;1.77;;;17.40;99.90;;;;;;5076559;28;20204;-61
2023/09/03 02:35:54;;;;;;;6.07;1.80;;;17.40;99.90;;;;;;5073698;28;20293;-61
2023/09/03 02:38:22;;;;;;;9.52;1.95;;;17.30;99.90;;;;;;5072572;28;20278;-61
2023/09/03 02:40:50;;;;;;;5.00;1.88;;;17.30;99.90;;;;;;5071430;28;20336;-61
2023/09/03 02:43:17;;;;;;;3.30;1.83;;;17.30;99.90;;;;;;5073719;28;20392;-61
2023/09/03 02:45:45;;;;;;;10.82;2.55;;;17.30;99.90;;;;;;5080319;28;20292;-62
2023/09/03 02:48:13;;;;;;;4.65;2.03;;;17.30;99.90;;;;;;5073436;28;20757;-61
2023/09/03 02:50:41;;;;;;;5.82;2.03;;;17.30;99.90;;;;;;5077775;28;20224;-61
2023/09/03 02:53:10;;;;;;;6.82;2.40;;;17.30;99.90;;;;;;5075162;28;20266;-61
2023/09/03 02:55:39;;;;;;;7.90;2.45;;;17.20;99.90;;;;;;5077386;28;20319;-61
2023/09/03 02:58:07;;;;;;;4.30;1.88;;;17.30;99.90;;;;;;5078408;28;20259;-61
2023/09/03 03:00:35;;;;;;;5.60;2.08;;;17.20;99.90;;;;;;5072743;28;20217;-61
2023/09/03 03:03:03;;;;;;;7.85;1.90;;;17.20;99.90;;;;;;5073571;28;20228;-61
2023/09/03 03:05:31;;;;;;;6.45;2.00;;;17.20;99.90;;;;;;5079141;28;20672;-61
2023/09/03 03:08:02;;;;;;;2.95;2.05;;;17.20;99.90;;;;;;5076269;28;20228;-61
2023/09/03 03:10:32;;;;;;;6.18;2.17;;;17.20;99.90;;;;;;5077908;28;20665;-61
2023/09/03 03:12:59;;;;;;;4.32;1.95;;;17.20;99.90;;;;;;5072999;28;20291;-61
2023/09/03 03:15:28;;;;;;;6.88;2.08;;;17.20;99.90;;;;;;5073035;28;20292;-61
2023/09/03 03:17:56;;;;;;;4.85;2.40;;;17.10;99.90;;;;;;5082557;28;20676;-61
2023/09/03 03:20:24;;;;;;;6.38;2.50;;;17.10;99.90;;;;;;5079751;28;20230;-61
2023/09/03 03:22:52;;;;;;;4.07;2.35;;;17.20;99.90;;;;;;5078055;28;20287;-61
2023/09/03 03:25:20;;;;;;;3.65;2.30;;;17.20;99.90;;;;;;5078486;28;20743;-62
2023/09/03 03:27:49;;;;;;;4.03;2.53;;;17.10;99.90;;;;;;5075993;28;20220;-61
2023/09/03 03:30:17;;;;;;;3.22;2.30;;;17.10;99.90;;;;;;5080006;28;20238;-61
2023/09/03 03:32:45;;;;;;;7.13;2.20;;;17.10;99.90;;;;;;5079730;28;20244;-61
2023/09/03 03:35:13;;;;;;;3.30;2.03;;;17.10;99.90;;;;;;5079032;28;20209;-61
2023/09/03 03:37:41;;;;;;;6.00;2.33;;;17.10;99.90;;;;;;5079026;28;20225;-61
2023/09/03 03:40:10;;;;;;;5.85;2.28;;;17.10;99.90;;;;;;5078973;28;20292;-60
2023/09/03 03:42:38;;;;;;;3.92;2.28;;;17.10;99.90;;;;;;5078359;28;20233;-61
2023/09/03 03:45:08;;;;;;;5.65;2.05;;;17.00;99.90;;;;;;5079499;28;20205;-61
2023/09/03 03:47:37;;;;;;;4.22;2.67;;;17.00;99.90;;;;;;5081379;28;20200;-61
2023/09/03 03:50:06;;;;;;;4.07;2.05;;;17.00;99.90;;;;;;5084087;28;20223;-61
2023/09/03 03:52:34;;;;;;;2.13;2.03;;;17.00;99.90;;;;;;5081788;28;20287;-61
2023/09/03 03:55:02;;;;;;;3.70;1.85;;;17.00;99.90;;;;;;5070659;28;20834;-61
2023/09/03 03:57:30;;;;;;;5.75;2.03;;;17.00;99.90;;;;;;5070337;28;20676;-61
2023/09/03 03:59:58;;;;;;;2.15;2.05;;;16.90;99.90;;;;;;5072859;28;20316;-61
2023/09/03 04:02:27;;;;;;;6.57;2.33;;;16.90;99.90;;;;;;5072416;28;20677;-61
2023/09/03 04:04:55;;;;;;;8.07;2.38;;;16.90;99.90;;;;;;5066283;28;20236;-61
2023/09/03 04:07:23;;;;;;;6.35;1.92;;;16.90;99.90;;;;;;5071529;28;20254;-61
2023/09/03 04:09:51;;;;;;;4.70;1.92;;;16.90;99.90;;;;;;5071412;28;20233;-61
2023/09/03 04:12:19;;;;;;;5.72;2.33;;;16.90;99.90;;;;;;5069991;28;20643;-61
2023/09/03 04:14:47;;;;;;;5.97;2.10;;;16.90;99.90;;;;;;5071628;28;20205;-61
2023/09/03 04:17:15;;;;;;;4.53;1.70;;;16.90;99.90;;;;;;5072224;28;20288;-60
2023/09/03 04:19:47;;;;;;;5.57;1.98;;;16.90;99.90;;;;;;5073315;28;20271;-61
2023/09/03 04:22:15;;;;;;;3.70;1.73;;;16.80;99.90;;;;;;5073845;28;20217;-61
2023/09/03 04:24:43;;;;;;;9.80;2.30;;;16.80;99.90;;;;;;5070638;28;20201;-61
2023/09/03 04:27:11;;;;;;;6.03;2.53;;;16.80;99.90;;;;;;5071964;28;20209;-61
2023/09/03 04:29:39;;;;;;;4.57;1.98;;;16.80;99.90;;;;;;5075858;28;20308;-61
2023/09/03 04:32:07;;;;;;;4.30;2.08;;;16.80;99.90;;;;;;5075215;28;20248;-61
2023/09/03 04:34:36;;;;;;;3.92;2.08;;;16.80;99.90;;;;;;5074453;28;20284;-61
2023/09/03 04:37:05;;;;;;;6.57;2.08;;;16.80;99.90;;;;;;5074351;28;20243;-61
2023/09/03 04:39:33;;;;;;;5.82;2.30;;;16.80;99.90;;;;;;5087420;22;20277;-54
2023/09/03 04:42:01;;;;;;;8.60;2.20;;;16.80;99.90;;;;;;5065437;28;20228;-54
2023/09/03 04:44:28;;;;;;;3.85;2.25;;;16.80;99.90;;;;;;5064080;28;20256;-54
2023/09/03 04:46:56;;;;;;;6.28;2.50;;;16.70;99.90;;;;;;5061408;28;20244;-56
2023/09/03 04:49:24;;;;;;;2.10;1.88;;;16.70;99.90;;;;;;5067816;28;20638;-53
2023/09/03 04:51:52;;;;;;;12.05;2.35;;;16.70;99.90;;;;;;5071235;28;20258;-54
2023/09/03 04:54:21;;;;;;;7.63;2.03;;;16.60;99.90;;;;;;5069556;28;20263;-55
2023/09/03 04:56:49;;;;;;;5.28;2.10;;;16.60;99.90;;;;;;5069964;28;20233;-53
2023/09/03 04:59:17;;;;;;;9.48;2.42;;;16.60;99.90;;;;;;5070295;28;20233;-53
2023/09/03 05:01:46;;;;;;;6.57;2.38;;;16.70;99.90;;;;;;5070325;28;20216;-53
2023/09/03 05:04:14;;;;;;;3.90;1.98;;;16.70;99.90;;;;;;5078665;28;20219;-54
2023/09/03 05:06:42;;;;;;;2.22;1.83;;;16.70;99.90;;;;;;5071123;28;20258;-53
2023/09/03 05:09:10;;;;;;;8.43;1.98;;;16.60;99.90;;;;;;5067280;28;20229;-53
2023/09/03 05:11:42;;;;;;;3.42;2.05;;;16.70;99.90;;;;;;5070002;28;20280;-54
2023/09/03 05:14:10;;;;;;;3.28;1.98;;;16.70;99.90;;;;;;5070481;28;20271;-53
2023/09/03 05:16:38;;;;;;;5.45;1.90;;;16.70;99.90;;;;;;5062426;28;20288;-53
2023/09/03 05:19:06;;;;;;;3.70;2.03;;;16.70;99.90;;;;;;5069629;28;20732;-57
2023/09/03 05:21:34;;;;;;;2.80;1.88;;;16.70;99.90;;;;;;5070697;28;20232;-53
2023/09/03 05:24:02;;;;;;;3.80;2.33;;;16.70;99.90;;;;;;5070862;28;20288;-54
2023/09/03 05:26:32;;;;;;;3.08;1.90;;;16.70;99.90;;;;;;5068055;28;20649;-53
2023/09/03 05:29:01;;;;;;;3.10;1.90;;;16.70;99.90;;;;;;5070563;28;20328;-53
2023/09/03 05:31:30;;;;;;;2.45;1.90;;;16.70;99.90;;;;;;5070462;28;20286;-54
2023/09/03 05:33:59;;;;;;;4.57;2.00;;;16.70;99.90;;;;;;5070474;28;20204;-53
2023/09/03 05:36:28;;;;;;;5.55;2.15;;;16.70;99.90;;;;;;5068961;28;20652;-57
2023/09/03 05:38:55;;;;;;;5.00;2.28;;;16.80;99.90;;;;;;5068619;28;20260;-56
2023/09/03 05:41:23;;;;;;;2.60;1.60;;;16.80;99.90;;;;;;5068416;28;20292;-57
2023/09/03 05:43:53;;;;;;;4.68;2.20;;;16.90;99.90;;;;;;5068768;28;20201;-53
2023/09/03 05:46:22;;;;;;;7.82;2.20;;;16.90;99.90;;;;;;5069059;28;20200;-53
2023/09/03 05:48:50;;;;;;;8.02;2.42;;;17.00;99.90;;;;;;5068212;28;20356;-53
2023/09/03 05:51:18;;;;;;;7.75;2.40;;;16.90;99.90;;;;;;5068954;28;20213;-54
2023/09/03 05:53:46;;;;;;;5.70;2.28;;;17.00;99.90;;;;;;5068577;28;20598;-54
2023/09/03 05:56:14;;;;;;;2.35;2.15;;;17.00;99.90;;;;;;5068949;28;20201;-56
2023/09/03 05:58:42;;;;;;;6.65;2.17;;;17.10;99.90;;;;;;5065054;28;20643;-58
2023/09/03 06:01:10;;;;;;;2.83;2.00;;;17.10;99.90;;;;;;5065073;28;20291;-58
2023/09/03 06:03:40;;;;;;;6.70;2.10;;;17.20;99.90;;;;;;5062117;28;20665;-59
2023/09/03 06:06:09;;;;;;;5.93;2.25;;;17.30;99.90;;;;;;5068493;28;20225;-60
2023/09/03 06:08:37;;;;;;;2.72;2.45;;;17.30;99.90;;;;;;5068385;28;20298;-59
2023/09/03 06:11:05;;;;;;;3.28;2.42;;;17.40;99.90;;;;;;5067357;28;20232;-58
2023/09/03 06:13:34;;;;;;;5.80;2.75;;;17.40;99.90;;;;;;5057908;28;20202;-59
2023/09/03 06:16:02;;;;;;;3.47;2.20;;;17.40;99.90;;;;;;5066804;28;20274;-59
2023/09/03 06:18:30;;;;;;;3.78;2.38;;;17.40;99.90;;;;;;5062160;28;20225;-59
2023/09/03 06:21:00;;;;;;;6.50;2.50;;;17.50;99.90;;;;;;5063235;28;20209;-58
2023/09/03 06:23:27;;;;;;;3.58;2.65;;;17.50;99.90;;;;;;5063295;28;20289;-59
2023/09/03 06:25:55;;;;;;;5.07;2.58;;;17.60;99.90;;;;;;5062994;28;20236;-59
2023/09/03 06:28:26;;;;;;;5.10;2.72;;;17.60;99.90;;;;;;5069744;28;20216;-59
2023/09/03 06:30:56;;;;;;;5.55;2.63;;;17.60;99.90;;;;;;5064381;28;20202;-59
2023/09/03 06:33:24;;;;;;;4.57;2.45;;;17.70;99.90;;;;;;5072897;28;20201;-59
2023/09/03 06:35:52;;;;;;;5.55;2.47;;;17.80;99.90;;;;;;5073005;28;20231;-60
2023/09/03 06:38:22;;;;;;;4.65;2.00;;;17.80;99.90;;;;;;5068069;28;20324;-58
2023/09/03 06:40:50;;;;;;;4.75;2.45;;;17.90;99.90;;;;;;5064787;28;20205;-59
2023/09/03 06:43:18;;;;;;;4.53;2.50;;;18.00;99.90;;;;;;5066924;28;20331;-59
2023/09/03 06:45:47;;;;;;;6.82;2.38;;;18.00;99.90;;;;;;5067008;28;20205;-58
2023/09/03 06:48:15;;;;;;;4.13;2.00;;;18.10;99.90;;;;;;5058745;28;20229;-58
2023/09/03 06:50:43;;;;;;;3.17;2.20;;;18.20;99.90;;;;;;5066875;28;20202;-59
2023/09/03 06:53:11;;;;;;;3.72;2.47;;;18.30;99.90;;;;;;5068707;28;20277;-58
2023/09/03 06:55:40;;;;;;;6.28;2.35;;;18.30;99.90;;;;;;5068094;28;20200;-59
2023/09/03 06:58:08;;;;;;;3.10;2.63;;;18.40;99.90;;;;;;5072898;28;20301;-60
2023/09/03 07:00:36;;;;;;;8.38;2.45;;;18.40;99.90;;;;;;5066745;28;20243;-58
2023/09/03 07:03:04;;;;;;;5.95;3.28;;;18.50;99.90;;;;;;5072619;28;20335;-60
2023/09/03 07:05:32;;;;;;;10.25;3.20;;;18.60;99.90;;;;;;5071749;28;20245;-59
2023/09/03 07:08:00;;;;;;;5.53;3.17;;;18.60;99.90;;;;;;5073682;28;20232;-58
2023/09/03 07:10:28;;;;;;;3.80;3.00;;;18.70;99.90;;;;;;5073763;28;20235;-60
2023/09/03 07:12:57;;;;;;;8.63;3.28;;;18.80;99.90;;;;;;5073823;28;20216;-59
2023/09/03 07:15:25;;;;;;;5.97;3.33;;;18.80;99.90;;;;;;5073367;28;20266;-59
2023/09/03 07:17:52;;;;;;;3.25;3.05;;;18.90;99.90;;;;;;5073818;28;20239;-59
2023/09/03 07:20:20;;;;;;;6.95;3.40;;;19.00;99.90;;;;;;5073678;28;20236;-60
2023/09/03 07:22:48;;;;;;;8.23;3.60;;;19.10;99.90;;;;;;5068724;28;20950;-59
2023/09/03 07:25:16;;;;;;;4.93;4.25;;;19.20;99.90;;;;;;5070896;28;20201;-59
2023/09/03 07:27:44;;;;;;;4.63;3.75;;;19.20;99.90;;;;;;5071636;28;20205;-60
2023/09/03 07:30:14;;;;;;;3.83;3.58;;;19.30;99.90;;;;;;5063955;28;20660;-59
2023/09/03 07:32:42;;;;;;;8.52;3.60;;;19.40;99.90;;;;;;5071472;28;20239;-60
2023/09/03 07:35:10;;;;;;;3.28;3.03;;;19.40;99.90;;;;;;5066492;28;20287;-59
2023/09/03 07:37:38;;;;;;;4.40;4.00;;;19.50;99.90;;;;;;5069059;28;20284;-59
2023/09/03 07:40:08;;;;;;;17.65;8.10;;;19.60;99.90;;;;;;5068330;28;20271;-59
2023/09/03 07:42:36;;;;;;;7.22;6.35;;;19.60;99.90;;;;;;5070183;28;20197;-60
2023/09/03 07:45:04;;;;;;;12.18;7.78;;;19.70;99.90;;;;;;5062035;28;20239;-59
2023/09/03 07:47:33;;;;;;;12.25;7.68;;;19.70;99.90;;;;;;5071474;28;20266;-59
2023/09/03 07:50:01;;;;;;;13.55;7.88;;;19.80;99.90;;;;;;5071513;28;20223;-60
2023/09/03 07:52:29;;;;;;;12.70;8.02;;;19.90;99.90;;;;;;5072204;28;20299;-59
2023/09/03 07:54:57;;;;;;;14.20;8.50;;;19.90;99.90;;;;;;5063033;28;20205;-61
2023/09/03 07:57:27;;;;;;;8.55;7.72;;;20.10;99.90;;;;;;5056558;28;20264;-60
2023/09/03 07:59:56;;;;;;;10.63;9.52;;;20.20;99.90;;;;;;5058760;28;20221;-60
2023/09/03 08:02:24;;;;;;;10.02;8.82;;;20.20;99.90;;;;;;5071126;28;20200;-60
2023/09/03 08:04:53;;;;;;;11.30;9.07;;;20.30;99.90;;;;;;5069744;28;20252;-60
2023/09/03 08:07:21;;;;;;;9.73;8.40;;;20.40;99.90;;;;;;5067535;28;20668;-62
2023/09/03 08:09:49;;;;;;;8.48;5.68;;;20.50;99.90;;;;;;5067055;28;20296;-61
2023/09/03 08:12:17;;;;;;;8.57;7.70;;;20.60;99.90;;;;;;5070510;28;20236;-59
2023/09/03 08:14:48;;;;;;;10.80;9.07;;;20.80;99.90;;;;;;5071185;28;20645;-60
2023/09/03 08:17:16;;;;;;;10.77;9.55;;;20.90;99.90;;;;;;5065143;28;20205;-62
2023/09/03 08:19:44;;;;;;;13.18;9.68;;;21.00;99.90;;;;;;5067087;28;20256;-58
2023/09/03 08:22:13;;;;;;;11.93;10.38;;;21.10;99.90;;;;;;5068143;28;20215;-64
2023/09/03 08:24:41;;;;;;;12.02;10.20;;;21.10;99.90;;;;;;5070194;28;20312;-59
2023/09/03 08:27:09;;;;;;;12.70;10.10;;;21.10;99.90;;;;;;5070973;28;20291;-59
2023/09/03 08:29:37;;;;;;;12.48;11.00;;;21.20;99.90;;;;;;5070519;28;20307;-58
2023/09/03 08:32:05;;;;;;;14.13;11.52;;;21.20;99.90;;;;;;5058964;28;20370;-62
2023/09/03 08:34:33;;;;;;;12.25;10.68;;;21.20;99.90;;;;;;5065735;28;20254;-62
2023/09/03 08:37:01;;;;;;;14.48;11.10;;;21.30;99.90;;;;;;5069905;28;20246;-60
2023/09/03 08:39:30;;;;;;;10.88;9.50;;;21.40;99.90;;;;;;5067686;28;20236;-56
2023/09/03 08:41:58;;;;;;;10.68;9.68;;;21.50;99.90;;;;;;5066855;28;20204;-57
2023/09/03 08:44:30;;;;;;;11.05;9.77;;;21.60;99.90;;;;;;5066007;28;20308;-60
2023/09/03 08:46:59;;;;;;;11.70;10.07;;;21.70;99.90;;;;;;5064052;28;20295;-57
2023/09/03 08:49:29;;;;;;;11.70;10.57;;;21.90;99.90;;;;;;5067920;28;20216;-60
2023/09/03 08:51:57;;;;;;;10.15;9.15;;;22.10;99.90;;;;;;5070113;28;20228;-57
2023/09/03 08:54:25;;;;;;;12.68;9.82;;;22.20;99.90;;;;;;5071766;28;20243;-58
2023/09/03 08:56:54;;;;;;;10.90;9.68;;;22.30;99.90;;;;;;5071822;28;20272;-57
2023/09/03 08:59:22;;;;;;;11.35;10.30;;;22.40;99.90;;;;;;5071652;28;20689;-57
2023/09/03 09:01:52;;;;;;;13.40;10.43;;;22.50;99.90;;;;;;5055333;28;20695;-57
2023/09/03 09:04:20;;;;;;;10.98;9.98;;;22.60;99.90;;;;;;5070776;28;20220;-59
2023/09/03 09:06:48;;;;;;;13.45;10.02;;;22.60;99.90;;;;;;5071392;28;20236;-57
2023/09/03 09:09:15;;;;;;;11.82;10.32;;;22.70;99.90;;;;;;5071677;28;20286;-58
2023/09/03 09:11:48;;;;;;;13.07;10.20;;;22.80;99.90;;;;;;5071447;28;20237;-58
2023/09/03 09:14:20;;;;;;;12.02;10.32;;;22.90;99.90;;;;;;5071598;28;20228;-57
2023/09/03 09:16:48;;;;;;;12.60;8.73;;;22.90;99.90;;;;;;5070126;28;20223;-58
2023/09/03 09:19:17;;;;;;;12.45;10.00;;;22.90;99.90;;;;;;5070683;28;20311;-58
2023/09/03 09:21:45;;;;;;;12.15;9.85;;;23.10;99.90;;;;;;5071045;28;20630;-58
2023/09/03 09:24:13;;;;;;;12.40;10.45;;;23.10;99.90;;;;;;5071406;28;20227;-58
2023/09/03 09:26:41;;;;;;;13.57;10.32;;;23.20;99.90;;;;;;5070949;28;20684;-57
2023/09/03 09:29:09;;;;;;;9.13;8.35;;;23.30;99.90;;;;;;5071264;28;20228;-58
2023/09/03 09:31:38;;;;;;;13.30;9.52;;;23.30;99.90;;;;;;5071391;28;20235;-60
2023/09/03 09:34:10;;;;;;;13.38;8.98;;;23.50;99.90;;;;;;5071399;28;20574;-57
2023/09/03 09:36:38;;;;;;;10.48;9.57;;;23.60;99.90;;;;;;5071208;28;20200;-58
2023/09/03 09:39:06;;;;;;;9.25;8.40;;;23.70;99.90;;;;;;5071300;28;20286;-58
2023/09/03 09:41:37;;;;;;;14.10;10.20;;;23.80;99.90;;;;;;5071072;28;20263;-57
2023/09/03 09:44:10;;;;;;;9.90;8.38;;;23.90;99.90;;;;;;5071307;28;20228;-57
2023/09/03 09:46:40;;;;;;;13.07;9.55;;;24.00;99.90;;;;;;5070921;28;20197;-57
2023/09/03 09:49:08;;;;;;;11.88;9.20;;;24.10;99.90;;;;;;5071384;28;20220;-58
2023/09/03 09:51:36;;;;;;;10.40;9.45;;;24.20;99.90;;;;;;5071127;28;20333;-59
2023/09/03 09:54:04;;;;;;;10.40;9.32;;;24.20;99.90;;;;;;5071137;28;20235;-58
2023/09/03 09:56:34;;;;;;;10.25;9.20;;;24.10;99.90;;;;;;5070811;28;20282;-58
2023/09/03 09:59:02;;;;;;;10.75;9.55;;;24.10;99.90;;;;;;5070958;28;20769;-58
2023/09/03 10:01:44;;;;;;;9.23;8.38;;;24.10;99.90;;;;;;5070951;28;20208;-58
2023/09/03 10:04:12;;;;;;;11.05;9.63;;;24.30;99.90;;;;;;5072351;28;20278;-60
2023/09/03 10:06:40;;;;;;;8.27;7.57;;;24.50;99.90;;;;;;5074652;28;20694;-59
2023/09/03 10:09:08;;;;;;;13.38;8.82;;;24.70;99.90;;;;;;5075154;28;20224;-57
2023/09/03 10:11:36;;;;;;;9.90;8.90;;;24.90;99.90;;;;;;5074843;28;20262;-58
2023/09/03 10:14:04;;;;;;;8.05;7.45;;;24.90;99.90;;;;;;5074320;28;20284;-60
2023/09/03 10:16:32;;;;;;;10.80;9.82;;;25.00;99.90;;;;;;5074465;28;20229;-58
2023/09/03 10:19:03;;;;;;;9.35;8.38;;;25.20;99.90;;;;;;5074784;28;20303;-58
2023/09/03 10:21:31;;;;;;;8.98;8.10;;;25.40;99.90;;;;;;5074574;28;20733;-58
2023/09/03 10:24:19;;;;;;;8.45;7.75;;;25.70;99.90;;;;;;5074909;28;20228;-58
2023/09/03 10:26:49;;;;;;;8.43;7.63;;;25.90;99.90;;;;;;5074599;28;20201;-58
2023/09/03 10:29:19;;;;;;;8.93;8.13;;;26.00;99.90;;;;;;5074485;28;20780;-59
2023/09/03 10:31:47;;;;;;;7.85;7.22;;;26.10;99.90;;;;;;5074447;28;20680;-58
2023/09/03 10:34:16;;;;;;;9.20;8.25;;;26.10;99.90;;;;;;5074718;28;20200;-58
2023/09/03 10:37:04;;;;;;;8.05;7.28;;;26.20;99.90;;;;;;5074439;28;20197;-57
2023/09/03 10:39:31;;;;;;;8.70;7.90;;;26.20;99.90;;;;;;5098944;22;20721;-74
2023/09/03 10:42:31;;;;;;;7.90;7.10;;;26.20;99.90;;;;;;5089295;28;20252;-75
2023/09/03 10:44:59;;;;;;;8.98;8.10;;;26.20;99.90;;;;;;5087306;28;20829;-75
2023/09/03 10:47:27;;;;;;;9.93;8.88;;;26.20;99.90;;;;;;5077488;28;20232;-74
2023/09/03 10:49:57;;;;;;;11.48;8.98;;;25.80;99.90;;;;;;5078611;28;20672;-74
2023/09/03 10:52:37;;;;;;;9.20;7.88;;;25.70;99.90;;;;;;5085587;28;20736;-74
2023/09/03 10:55:17;;;;;;;10.30;8.38;;;25.80;99.90;;;;;;5088033;28;20242;-76
2023/09/03 10:57:45;;;;;;;8.85;8.05;;;25.70;99.90;;;;;;5077331;28;20196;-74
2023/09/03 11:02:41;;;;;;;9.32;7.70;;;26.10;99.90;;;;;;5032749;28;20240;-65
2023/09/03 11:05:23;;;;;;;8.15;7.32;;;26.40;99.90;;;;;;5033495;28;20763;-64
2023/09/03 11:08:07;;;;;;;9.10;7.07;;;26.60;99.90;;;;;;5017576;28;20241;-64
2023/09/03 11:10:44;;;;;;;7.97;7.25;;;26.80;99.90;;;;;;5032097;28;20321;-64
2023/09/03 11:13:12;;;;;;;7.65;7.05;;;27.00;99.90;;;;;;5031756;28;20702;-64
2023/09/03 11:15:55;;;;;;;8.25;7.45;;;27.10;99.90;;;;;;5016132;28;20206;-64
2023/09/03 11:18:25;;;;;;;8.20;7.40;;;27.40;99.90;;;;;;5032364;28;20202;-64
2023/09/03 11:20:55;;;;;;;8.55;7.75;;;27.40;99.90;;;;;;5032004;28;20791;-64
2023/09/03 11:23:23;;;;;;;6.90;6.43;;;27.50;99.90;;;;;;5030043;28;20230;-63
2023/09/03 11:25:52;;;;;;;7.15;6.63;;;27.70;99.90;;;;;;5031292;28;20226;-63
2023/09/03 11:28:20;;;;;;;7.60;7.00;;;27.80;99.90;;;;;;5031787;28;20266;-63
2023/09/03 11:30:48;;;;;;;7.13;6.43;;;27.90;99.90;;;;;;5031967;28;20237;-64
2023/09/03 11:33:23;;;;;;;6.68;5.97;;;28.20;99.90;;;;;;5031612;28;20685;-65
2023/09/03 11:35:53;;;;;;;7.28;6.60;;;28.50;99.90;;;;;;5025557;28;20206;-63
2023/09/03 11:38:24;;;;;;;6.30;5.80;;;28.80;99.90;;;;;;5031776;28;20206;-62
2023/09/03 11:40:56;;;;;;;6.32;5.90;;;29.10;99.90;;;;;;5026374;28;20225;-63
2023/09/03 11:43:24;;;;;;;6.88;6.22;;;29.20;99.90;;;;;;5030511;28;20238;-62
2023/09/03 11:45:52;;;;;;;6.40;5.90;;;29.10;99.90;;;;;;5031040;28;20226;-62
2023/09/03 11:48:26;;;;;;;6.45;5.85;;;29.10;99.90;;;;;;5031448;28;20272;-63
2023/09/03 11:50:54;;;;;;;5.50;5.10;;;29.30;99.90;;;;;;5031321;28;20202;-63
2023/09/03 11:53:23;;;;;;;5.72;5.22;;;29.60;99.90;;;;;;5030006;28;20252;-63
2023/09/03 11:55:53;;;;;;;6.18;5.78;;;29.80;99.90;;;;;;5029356;28;20285;-62
2023/09/03 11:58:23;;;;;;;6.15;5.55;;;29.90;99.90;;;;;;5031791;28;20397;-63
2023/09/03 12:00:50;;;;;;;6.72;6.07;;;30.00;99.90;;;;;;5027050;28;20214;-62
2023/09/03 12:03:18;;;;;;;5.63;5.22;;;30.00;99.90;;;;;;5031439;28;20213;-62
2023/09/03 12:05:47;;;;;;;5.38;5.07;;;30.30;99.90;;;;;;5030274;28;20237;-65
2023/09/03 12:08:15;;;;;;;6.22;5.82;;;30.40;99.90;;;;;;5030789;28;20654;-64
2023/09/03 12:10:48;;;;;;;8.07;5.95;;;30.40;99.90;;;;;;5027096;28;20252;-62
2023/09/03 12:13:31;;;;;;;5.63;4.95;;;30.00;99.90;;;;;;5028521;28;20206;-63
2023/09/03 12:16:07;;;;;;;6.07;5.47;;;29.30;99.90;;;;;;5028846;28;20661;-62
2023/09/03 12:18:35;;;;;;;6.53;6.00;;;29.10;99.90;;;;;;5028244;28;20262;-62
2023/09/03 12:21:05;;;;;;;5.78;5.40;;;29.40;99.90;;;;;;5029144;28;20294;-62
2023/09/03 12:23:34;;;;;;;6.18;5.57;;;29.80;99.90;;;;;;5029622;28;20214;-62
2023/09/03 12:26:05;;;;;;;6.30;5.80;;;30.10;99.90;;;;;;5029000;28;20233;-62
2023/09/03 12:28:34;;;;;;;5.68;5.28;;;30.40;99.90;;;;;;5029761;28;20198;-63
2023/09/03 12:31:03;;;;;;;6.80;6.30;;;30.40;99.90;;;;;;5030507;28;20202;-64
2023/09/03 12:33:47;;;;;;;5.40;5.00;;;30.40;99.90;;;;;;5032466;28;20285;-62
2023/09/03 12:36:16;;;;;;;6.00;5.68;;;30.20;99.90;;;;;;5030473;28;20646;-63
2023/09/03 12:38:57;;;;;;;5.07;4.78;;;30.40;99.90;;;;;;5030392;28;20304;-63
2023/09/03 12:41:27;;;;;;;5.65;5.35;;;30.40;99.90;;;;;;5032124;28;20238;-62
2023/09/03 12:43:55;;;;;;;6.80;6.20;;;30.20;99.90;;;;;;5032282;28;20212;-62
2023/09/03 12:46:23;;;;;;;6.97;6.28;;;29.80;99.90;;;;;;5031783;28;20309;-62
2023/09/03 12:48:51;;;;;;;7.25;6.65;;;29.90;99.90;;;;;;5032143;28;20230;-63
2023/09/03 12:51:19;;;;;;;7.95;7.25;;;30.00;99.90;;;;;;5032301;28;20206;-63
2023/09/03 12:53:47;;;;;;;7.10;6.43;;;29.90;99.90;;;;;;5032050;28;20736;-62
2023/09/03 12:56:16;;;;;;;7.00;6.43;;;30.00;99.90;;;;;;5031683;28;20658;-62
2023/09/03 12:58:46;;;;;;;6.00;5.60;;;29.80;99.90;;;;;;5032263;28;20304;-63